Historyczne dane pomiarowe

Dodano dane terminowe – wersja testowa.

Dane z okresu 1951-2019

Wersja bazy: 1.34 [2019-03-16, lista zmian], aktualizacja planowana na 2019-04-15

Dane meteo z obszaru Polski uzyskane na podstawie danych udostępnionych przez Instytut Meteorologii i Gospodarki Wodnej – Państwowy Instytut Badawczy.

 

Wybierz Datę:    

       

TemperaturaWilgotnośćWiatrCiśnienieOpadyŚniegCzas trwania zjawisk
 Stacja t tx tn tng RH VA  wxwx mslp ppp RRR   cm mm wxwxwxwxwxwxwx
1994-08-14 12.7 16.9 10.6 9.0 83.8- 7.3 5.3---- 7.8------------
1994-08-13 16.0 20.8 14.0 14.9 90.8- 7.0 3.7---- 4.4------------
1994-08-12 18.3 20.6 16.2 15.5 88.5- 7.7 1.7---- 0.1------------
1994-08-11 20.0 25.1 17.0 15.5 70.8- 7.7 2.7---- 4.1------------
1994-08-10 21.1 28.9 15.1 13.4 74.0- 5.3 1.0---- 0.0------------
1994-08-09 21.0 26.1 17.2 16.6 87.5- 6.7 0.3---- 8.0------------
1994-08-08 21.3 26.9 17.5 16.5 80.8- 7.3 0.7---- 0.0------------
1994-08-07 23.2 27.8 18.7 16.5 71.3- 6.3 0.7---- 1.2------------
1994-08-06 24.2 30.5 17.9 14.5 69.5- 4.3 2.0---- 0.0------------
1994-08-05 24.9 32.9 16.3 13.9 71.0- 0.3 2.3---- 0.0------------
1994-08-04 22.9 28.0 15.6 12.6 72.8- 3.0 1.3---- 0.0------------
1994-08-03 24.5 29.0 19.1 18.9 67.8- 2.0 2.3---- 0.0------------
1994-08-02 26.2 31.6 20.1 18.5 65.0- 4.3 2.7---- 10.0------------
1994-08-01 27.1 37.1 19.9 16.8 51.3- 5.7 1.7---- 15.4------------
1994-07-31 28.4 38.0 18.8 15.4 48.0- 3.0 1.7---- 0.0------------
1994-07-30 27.2 37.1 16.3 13.3 47.3- 2.0 2.0---- 0.0------------
1994-07-29 27.3 36.7 16.8 13.8 54.8- 2.0 0.7---- 0.0------------
1994-07-28 27.5 36.4 17.4 13.9 55.5- 2.7 2.3---- 0.0------------
1994-07-27 27.6 35.5 17.7 15.1 49.5- 4.0 1.0---- 0.0------------
1994-07-26 27.1 35.4 17.1 13.2 45.8- 0.7 2.0---- 0.0------------
1994-07-25 25.6 33.7 15.6 12.2 51.5- 1.7 2.7---- 0.0------------
1994-07-24 24.1 31.3 14.0 11.0 55.3- 0.3 1.7---- 0.0------------
1994-07-23 22.7 30.5 13.5 10.2 60.5- 0.7 2.0---- 0.0------------
1994-07-22 22.0 29.0 13.4 9.8 53.3- 2.0 2.7---- 0.0------------
1994-07-21 21.3 28.0 9.3 8.2 54.3- 0.3 1.3---- 0.0------------
1994-07-20 19.1 25.0 10.5 9.0 62.0- 0.3 2.7---- 0.0------------
1994-07-19 18.7 23.6 12.6 12.4 57.3- 4.3 4.3---- 0.0------------
1994-07-18 19.7 24.2 14.0 13.0 62.3- 4.0 2.0---- 0.0------------
1994-07-17 21.7 28.2 15.7 13.3 71.5- 6.7 2.3---- 14.6------------
1994-07-16 22.8 27.5 19.0 17.5 72.0- 5.3 2.3---- 0.0------------
1994-07-15 25.3 31.6 18.5 16.0 64.8- 4.0 2.3---- 1.6------------
1994-07-14 24.9 32.2 14.5 12.1 62.0- 2.7 1.7---- 0.0------------
1994-07-13 23.9 30.5 16.0 13.2 59.0- 2.0 2.7---- 0.0------------
1994-07-12 22.9 28.5 15.1 12.9 63.5- 1.3 3.3---- 0.0------------
1994-07-11 21.9 28.0 13.0 11.4 64.8- 1.0 2.3---- 0.0------------
1994-07-10 19.9 26.3 13.4 12.4 73.3- 3.7 2.7---- 0.0------------
1994-07-09 16.3 21.5 14.0 13.8 85.8- 6.7 4.0---- 1.0------------
1994-07-08 14.4 21.3 12.8 13.8 97.0- 8.0 3.7---- 56.7------------
1994-07-07 18.8 27.3 10.6 7.0 70.0- 4.0 2.0---- 16.5------------
1994-07-06 19.9 25.5 12.5 11.5 62.5- 4.7 3.0---- 0.0------------
1994-07-05 20.1 26.0 12.7 11.3 64.0- 5.3 1.3---- 0.0------------
1994-07-04 21.6 28.7 13.5 10.5 51.0- 0.7 2.7---- 0.0------------
1994-07-03 20.6 27.5 11.5 9.2 54.8- 1.0 3.0---- 0.0------------
1994-07-02 18.3 25.4 8.7 5.5 62.0- 0.0 3.0---- 0.0------------
1994-07-01 18.3 24.0 9.6 5.4 63.8- 3.3 2.7---- 0.0------------
1994-06-30 20.6 29.8 18.8 17.6 69.8- 5.3 4.3---- 0.0------------
1994-06-29 26.0 34.1 16.0 13.4 57.8- 2.3 2.3---- 0.0------------
1994-06-28 23.3 29.0 15.3 13.4 61.0- 2.0 2.0---- 0.0------------
1994-06-27 24.3 30.5 16.6 13.6 70.5- 5.0 1.3---- 0.0------------
1994-06-26 22.2 32.0 11.5 7.8 55.5- 2.7 1.7---- 0.0------------
1994-06-25 17.2 25.5 5.0 2.0 53.0- 0.0 2.3---- 0.0------------
1994-06-24 15.1 20.8 7.9 4.9 53.5- 1.3 3.3---- 0.0------------
1994-06-23 16.9 22.1 12.5 11.0 46.3- 3.3 5.7---- 0.0------------
1994-06-22 19.8 25.0 15.2 13.5 63.5- 6.3 5.3---- 0.0------------
1994-06-21 16.5 23.2 6.8 3.8 59.8- 2.7 2.0---- 0.0------------
1994-06-20 17.0 20.9 14.0 13.0 55.0- 4.3 4.3---- 0.0------------
1994-06-19 17.0 23.3 12.0 11.0 73.8- 8.0 3.0---- 0.0------------
1994-06-18 13.4 18.6 5.3 2.6 68.5- 6.7 3.7---- 5.6------------
1994-06-17 11.4 13.9 7.0 5.9 66.3- 6.0 4.0---- 0.0------------
1994-06-16 11.8 15.9 10.6 7.9 76.5- 7.3 4.3---- 3.6------------
206.6 ms

 

Źródłem pochodzenia danych jest Instytut Meteorologii i Gospodarki Wodnej – Państwowy Instytut Badawczy. Dane Instytutu Meteorologii i Gospodarki Wodnej – Państwowego Instytutu Badawczego zostały przetworzone.

Dane źródłowe można odnaleźć na stronie https://dane.imgw.pl